createdAt,value
2019-06-01T00:00:11.856Z,16.62
2019-06-01T00:02:45.275Z,16.63
2019-06-01T00:05:12.141Z,16.61
2019-06-01T00:07:40.792Z,16.51
2019-06-01T00:10:08.464Z,16.36
2019-06-01T00:12:35.815Z,16.40
2019-06-01T00:15:03.862Z,16.42
2019-06-01T00:17:31.145Z,16.25
2019-06-01T00:19:59.486Z,16.16
2019-06-01T00:22:26.766Z,16.15
2019-06-01T00:24:54.043Z,16.13
2019-06-01T00:27:21.202Z,15.96
2019-06-01T00:29:49.934Z,15.96
2019-06-01T00:32:21.699Z,15.89
2019-06-01T00:34:49.911Z,15.80
2019-06-01T00:37:17.152Z,15.88
2019-06-01T00:39:45.640Z,16.03
2019-06-01T00:42:15.850Z,16.03
2019-06-01T00:44:44.222Z,15.94
2019-06-01T00:47:12.327Z,15.95
2019-06-01T00:49:39.696Z,15.84
2019-06-01T00:52:06.844Z,15.85
2019-06-01T00:54:34.317Z,15.67
2019-06-01T00:57:01.677Z,15.66
2019-06-01T00:59:29.853Z,15.65
2019-06-01T01:01:57.122Z,15.55
2019-06-01T01:04:24.319Z,15.53
2019-06-01T01:06:52.868Z,15.44
2019-06-01T01:09:32.027Z,15.49
2019-06-01T01:11:59.379Z,15.48
2019-06-01T01:14:26.746Z,15.35
2019-06-01T01:16:55.669Z,15.32
2019-06-01T01:19:23.285Z,15.32
2019-06-01T01:21:56.290Z,15.30
2019-06-01T01:24:23.697Z,15.30
2019-06-01T01:26:50.951Z,15.18
2019-06-01T01:29:18.227Z,15.30
2019-06-01T01:31:55.278Z,15.19
2019-06-01T01:34:22.614Z,15.23
2019-06-01T01:36:49.877Z,15.03
2019-06-01T01:39:17.180Z,14.93
2019-06-01T01:41:44.546Z,14.93
2019-06-01T01:44:13.727Z,14.84
2019-06-01T01:46:41.210Z,14.89
2019-06-01T01:49:08.684Z,14.80
2019-06-01T01:51:36.127Z,14.84
2019-06-01T01:54:15.444Z,14.86
2019-06-01T01:56:42.596Z,14.81
2019-06-01T01:59:09.859Z,14.83
2019-06-01T02:01:37.045Z,14.84
2019-06-01T02:04:04.495Z,14.80
2019-06-01T02:06:33.678Z,14.80
2019-06-01T02:09:01.867Z,14.70
2019-06-01T02:11:29.353Z,14.71
2019-06-01T02:13:57.786Z,14.75
2019-06-01T02:16:36.544Z,14.65
2019-06-01T02:19:04.046Z,14.54
2019-06-01T02:21:31.381Z,14.48
2019-06-01T02:23:59.022Z,14.37
2019-06-01T02:26:26.437Z,14.46
2019-06-01T02:28:59.465Z,14.35
2019-06-01T02:31:40.558Z,14.34
2019-06-01T02:33:56.393Z,14.32
2019-06-01T02:36:24.217Z,14.30
2019-06-01T02:39:00.895Z,14.33
2019-06-01T02:41:28.320Z,14.31
2019-06-01T02:43:57.334Z,14.15
2019-06-01T02:46:24.912Z,14.12
2019-06-01T02:48:59.822Z,14.08
2019-06-01T02:51:28.146Z,14.11
2019-06-01T02:53:55.630Z,14.06
2019-06-01T02:56:23.107Z,14.01
2019-06-01T02:58:50.272Z,14.03
2019-06-01T03:01:35.360Z,13.94
2019-06-01T03:04:08.056Z,13.99
2019-06-01T03:06:40.235Z,13.92
2019-06-01T03:09:09.202Z,13.94
2019-06-01T03:11:41.313Z,14.00
2019-06-01T03:14:10.871Z,13.91
2019-06-01T03:16:41.341Z,13.87
2019-06-01T03:19:09.222Z,13.91
2019-06-01T03:21:42.541Z,13.89
2019-06-01T03:24:13.032Z,13.82
2019-06-01T03:26:44.131Z,13.82
2019-06-01T03:29:18.393Z,13.80
2019-06-01T03:31:48.804Z,13.90
2019-06-01T03:34:16.179Z,13.87
2019-06-01T03:36:43.651Z,13.88
2019-06-01T03:39:12.890Z,13.86
2019-06-01T03:41:46.360Z,13.88
2019-06-01T03:44:14.384Z,13.84
2019-06-01T03:46:41.727Z,13.86
2019-06-01T03:49:09.777Z,13.90
2019-06-01T03:51:37.260Z,13.92
2019-06-01T03:54:10.200Z,13.96
2019-06-01T03:56:37.970Z,14.00
2019-06-01T03:59:05.239Z,13.96
2019-06-01T04:01:34.516Z,13.94
2019-06-01T04:04:07.145Z,13.97
2019-06-01T04:06:36.064Z,14.05
2019-06-01T04:09:07.617Z,14.09
2019-06-01T04:11:35.002Z,14.12
2019-06-01T04:14:03.436Z,14.20
2019-06-01T04:16:32.059Z,14.23
2019-06-01T04:18:59.210Z,14.23
2019-06-01T04:21:26.483Z,14.24
2019-06-01T04:23:53.748Z,14.26
2019-06-01T04:26:20.899Z,14.32
2019-06-01T04:28:51.926Z,14.30
2019-06-01T04:31:19.320Z,14.42
2019-06-01T04:33:46.578Z,14.45
2019-06-01T04:36:13.808Z,14.46
2019-06-01T04:38:40.942Z,14.49
2019-06-01T04:41:09.770Z,14.57
2019-06-01T04:43:37.181Z,14.64
2019-06-01T04:46:04.536Z,14.66
2019-06-01T04:48:31.904Z,14.73
2019-06-01T04:51:13.477Z,14.78
2019-06-01T04:53:40.909Z,14.90
2019-06-01T04:56:09.033Z,15.22
2019-06-01T04:58:36.420Z,15.63
2019-06-01T05:01:04.749Z,16.23
2019-06-01T05:03:34.607Z,16.82
2019-06-01T05:06:02.110Z,17.62
2019-06-01T05:08:29.277Z,18.40
2019-06-01T05:10:56.662Z,18.94
2019-06-01T05:13:34.269Z,19.68
2019-06-01T05:16:01.643Z,20.28
2019-06-01T05:18:28.777Z,20.71
2019-06-01T05:20:55.939Z,21.21
2019-06-01T05:23:23.213Z,21.51
2019-06-01T05:25:53.269Z,21.71
2019-06-01T05:28:19.659Z,21.69
2019-06-01T05:30:47.011Z,21.99
2019-06-01T05:33:29.316Z,22.30
2019-06-01T05:35:43.648Z,22.44
2019-06-01T05:38:12.230Z,22.52
2019-06-01T05:40:39.726Z,22.74
2019-06-01T05:43:10.683Z,23.41
2019-06-01T05:45:36.257Z,23.75
2019-06-01T05:48:03.987Z,23.85
2019-06-01T05:50:35.590Z,23.74
2019-06-01T05:53:03.080Z,23.96
2019-06-01T05:55:30.433Z,23.74
2019-06-01T05:57:57.746Z,23.70
2019-06-01T06:00:41.092Z,23.51
2019-06-01T06:03:08.683Z,23.32
2019-06-01T06:05:36.038Z,23.39
2019-06-01T06:08:03.650Z,23.53
2019-06-01T06:10:42.580Z,23.63
2019-06-01T06:13:11.007Z,23.66
2019-06-01T06:15:38.347Z,23.84
2019-06-01T06:18:05.726Z,23.96
2019-06-01T06:20:33.159Z,23.95
2019-06-01T06:23:04.482Z,24.24
2019-06-01T06:25:33.432Z,24.32
2019-06-01T06:28:01.079Z,24.40
2019-06-01T06:30:28.383Z,24.56
2019-06-01T06:33:06.807Z,24.41
2019-06-01T06:35:34.203Z,24.44
2019-06-01T06:38:01.540Z,24.37
2019-06-01T06:40:28.909Z,24.24
2019-06-01T06:43:18.644Z,23.78
2019-06-01T06:45:34.552Z,24.00
2019-06-01T06:48:02.022Z,23.79
2019-06-01T06:50:29.170Z,23.81
2019-06-01T06:52:56.356Z,23.73
2019-06-01T06:55:29.990Z,23.61
2019-06-01T06:57:57.511Z,23.58
2019-06-01T07:00:24.967Z,23.60
2019-06-01T07:02:52.228Z,23.57
2019-06-01T07:05:32.943Z,23.49
2019-06-01T07:08:00.440Z,23.55
2019-06-01T07:10:28.323Z,23.50
2019-06-01T07:12:55.713Z,23.65
2019-06-01T07:15:33.626Z,23.56
2019-06-01T07:18:01.041Z,23.55
2019-06-01T07:20:28.190Z,23.56
2019-06-01T07:22:55.581Z,23.51
2019-06-01T07:25:24.542Z,23.63
2019-06-01T07:27:52.172Z,23.69
2019-06-01T07:30:20.054Z,23.69
2019-06-01T07:32:47.708Z,23.69
2019-06-01T07:35:15.068Z,23.69
2019-06-01T07:37:54.548Z,23.65
2019-06-01T07:40:22.927Z,23.66
2019-06-01T07:42:50.327Z,23.65
2019-06-01T07:45:17.814Z,23.68
2019-06-01T07:47:45.288Z,23.69
2019-06-01T07:50:15.043Z,23.72
2019-06-01T07:52:42.515Z,23.72
2019-06-01T07:55:09.874Z,23.73
2019-06-01T07:57:37.034Z,23.68
2019-06-01T08:00:06.084Z,23.55
2019-06-01T08:02:34.860Z,23.50
2019-06-01T08:05:02.340Z,23.67
2019-06-01T08:07:29.690Z,23.79
2019-06-01T08:09:56.856Z,23.84
2019-06-01T08:12:34.620Z,23.89
2019-06-01T08:15:02.894Z,23.98
2019-06-01T08:17:30.174Z,24.18
2019-06-01T08:19:57.481Z,24.27
2019-06-01T08:22:25.904Z,24.32
2019-06-01T08:24:55.845Z,24.26
2019-06-01T08:27:24.282Z,24.32
2019-06-01T08:29:51.881Z,24.32
2019-06-01T08:32:19.263Z,24.23
2019-06-01T08:35:08.031Z,24.33
2019-06-01T08:37:27.588Z,24.42
2019-06-01T08:39:54.752Z,24.30
2019-06-01T08:42:25.265Z,24.32
2019-06-01T08:45:05.521Z,24.36
2019-06-01T08:47:34.030Z,24.37
2019-06-01T08:50:03.641Z,24.39
2019-06-01T08:52:32.188Z,24.51
2019-06-01T08:55:01.660Z,24.57
2019-06-01T08:57:30.340Z,24.53
2019-06-01T08:59:58.202Z,24.57
2019-06-01T09:02:26.513Z,24.64
2019-06-01T09:04:53.977Z,24.70
2019-06-01T09:07:21.251Z,24.59
2019-06-01T09:09:59.413Z,24.72
2019-06-01T09:12:27.254Z,24.80
2019-06-01T09:14:54.843Z,24.74
2019-06-01T09:17:22.205Z,24.85
2019-06-01T09:19:49.582Z,24.90
2019-06-01T09:22:18.729Z,24.92
2019-06-01T09:24:46.090Z,24.91
2019-06-01T09:27:13.371Z,25.03
2019-06-01T09:29:44.572Z,25.01
2019-06-01T09:32:15.880Z,24.95
2019-06-01T09:34:43.351Z,25.04
2019-06-01T09:37:10.823Z,25.13
2019-06-01T09:39:42.401Z,25.17
2019-06-01T09:42:09.577Z,25.22
2019-06-01T09:44:37.360Z,25.28
2019-06-01T09:47:04.753Z,25.39
2019-06-01T09:49:33.903Z,25.69
2019-06-01T09:52:04.116Z,26.07
2019-06-01T09:54:33.063Z,26.26
2019-06-01T09:57:00.867Z,26.78
2019-06-01T09:59:28.371Z,27.44
2019-06-01T10:02:10.672Z,27.86
2019-06-01T10:04:39.160Z,28.25
2019-06-01T10:07:06.311Z,28.88
2019-06-01T10:09:33.690Z,29.37
2019-06-01T10:12:00.956Z,29.82
2019-06-01T10:14:28.577Z,30.15
2019-06-01T10:16:55.668Z,30.51
2019-06-01T10:19:23.048Z,31.41
2019-06-01T10:21:50.336Z,31.80
2019-06-01T10:24:31.073Z,31.50
2019-06-01T10:26:58.388Z,32.52
2019-06-01T10:29:25.661Z,33.16
2019-06-01T10:31:53.045Z,33.36
2019-06-01T10:34:20.416Z,34.90
2019-06-01T10:36:48.017Z,35.32
2019-06-01T10:39:19.425Z,36.07
2019-06-01T10:41:44.465Z,37.07
2019-06-01T10:44:11.882Z,37.84
2019-06-01T10:46:52.855Z,37.44
2019-06-01T10:49:20.113Z,37.84
2019-06-01T10:51:50.067Z,38.38
2019-06-01T10:54:18.057Z,38.94
2019-06-01T10:56:45.208Z,39.06
2019-06-01T10:59:19.017Z,39.21
2019-06-01T11:01:46.344Z,39.11
2019-06-01T11:04:13.512Z,38.46
2019-06-01T11:06:47.728Z,39.16
2019-06-01T11:09:16.408Z,39.29
2019-06-01T11:11:43.680Z,38.93
2019-06-01T11:14:11.050Z,39.40
2019-06-01T11:16:39.657Z,39.54
2019-06-01T11:19:06.948Z,40.22
2019-06-01T11:21:35.445Z,40.18
2019-06-01T11:24:14.284Z,40.76
2019-06-01T11:26:42.023Z,40.80
2019-06-01T11:29:09.307Z,40.35
2019-06-01T11:31:38.242Z,40.60
2019-06-01T11:34:05.764Z,40.85
2019-06-01T11:36:36.182Z,40.99
2019-06-01T11:39:05.907Z,41.12
2019-06-01T11:41:34.385Z,40.56
2019-06-01T11:44:01.932Z,40.21
2019-06-01T11:46:36.737Z,40.44
2019-06-01T11:49:04.264Z,40.47
2019-06-01T11:51:31.669Z,39.99
2019-06-01T11:53:58.828Z,40.00
2019-06-01T11:56:26.091Z,39.76
2019-06-01T11:59:00.959Z,40.53
2019-06-01T12:01:28.335Z,40.56
2019-06-01T12:03:55.674Z,40.60
2019-06-01T12:06:23.063Z,40.73
2019-06-01T12:08:50.354Z,40.80
2019-06-01T12:11:21.161Z,40.95
2019-06-01T12:13:48.617Z,39.86
2019-06-01T12:16:16.096Z,40.21
2019-06-01T12:18:44.734Z,40.68
2019-06-01T12:21:12.246Z,40.67
2019-06-01T12:23:41.401Z,40.83
2019-06-01T12:26:08.900Z,40.78
2019-06-01T12:28:37.522Z,40.70
2019-06-01T12:31:04.825Z,40.46
2019-06-01T12:33:43.953Z,40.86
2019-06-01T12:36:11.446Z,41.13
2019-06-01T12:38:51.355Z,40.75
2019-06-01T12:41:19.401Z,40.48
2019-06-01T12:44:10.794Z,40.44
2019-06-01T12:46:40.039Z,40.24
2019-06-01T12:49:07.840Z,40.28
2019-06-01T12:51:35.298Z,40.28
2019-06-01T12:54:03.777Z,39.66
2019-06-01T12:56:40.863Z,39.45
2019-06-01T12:59:08.170Z,39.22
2019-06-01T13:01:35.537Z,39.08
2019-06-01T13:04:03.449Z,38.98
2019-06-01T13:06:31.150Z,39.05
2019-06-01T13:08:59.962Z,38.61
2019-06-01T13:11:27.763Z,38.45
2019-06-01T13:13:57.448Z,38.49
2019-06-01T13:16:25.327Z,38.40
2019-06-01T13:19:01.854Z,38.03
2019-06-01T13:21:29.238Z,37.44
2019-06-01T13:23:57.570Z,37.34
2019-06-01T13:26:25.100Z,37.26
2019-06-01T13:28:52.921Z,36.77
2019-06-01T13:31:23.862Z,36.31
2019-06-01T13:33:52.382Z,36.04
2019-06-01T13:36:21.282Z,35.93
2019-06-01T13:38:48.837Z,35.74
2019-06-01T13:41:23.736Z,35.66
2019-06-01T13:43:51.428Z,35.63
2019-06-01T13:46:18.751Z,35.61
2019-06-01T13:48:47.239Z,35.48
2019-06-01T13:51:14.894Z,35.36
2019-06-01T13:53:46.275Z,35.01
2019-06-01T13:56:13.699Z,34.97
2019-06-01T13:58:41.066Z,34.78
2019-06-01T14:01:08.331Z,34.93
2019-06-01T14:03:45.218Z,34.73
2019-06-01T14:06:12.474Z,34.61
2019-06-01T14:08:39.949Z,34.70
2019-06-01T14:11:07.104Z,34.57
2019-06-01T14:13:34.269Z,34.49
2019-06-01T14:16:02.151Z,34.35
2019-06-01T14:18:29.432Z,34.18
2019-06-01T14:20:56.615Z,33.87
2019-06-01T14:23:23.893Z,33.74
2019-06-01T14:26:03.455Z,33.61
2019-06-01T14:28:30.629Z,33.24
2019-06-01T14:30:57.899Z,33.09
2019-06-01T14:33:25.362Z,33.25
2019-06-01T14:35:52.863Z,33.29
2019-06-01T14:38:20.421Z,33.20
2019-06-01T14:40:48.877Z,32.94
2019-06-01T14:43:16.249Z,32.99
2019-06-01T14:45:44.052Z,32.91
2019-06-01T14:48:11.468Z,32.97
2019-06-01T14:50:38.940Z,32.46
2019-06-01T14:53:06.297Z,32.56
2019-06-01T14:55:33.663Z,32.53
2019-06-01T14:58:06.089Z,32.37
2019-06-01T15:00:33.329Z,32.47
2019-06-01T15:03:01.310Z,32.38
2019-06-01T15:05:28.665Z,32.23
2019-06-01T15:07:57.142Z,32.00
2019-06-01T15:10:28.882Z,31.77
2019-06-01T15:13:00.766Z,31.61
2019-06-01T15:15:25.765Z,31.68
2019-06-01T15:17:53.462Z,31.62
2019-06-01T15:20:24.033Z,31.47
2019-06-01T15:22:52.172Z,31.48
2019-06-01T15:25:19.689Z,31.60
2019-06-01T15:27:46.915Z,31.16
2019-06-01T15:30:15.282Z,31.29
2019-06-01T15:32:43.379Z,31.24
2019-06-01T15:35:11.047Z,31.27
2019-06-01T15:37:38.430Z,31.29
2019-06-01T15:40:06.604Z,31.17
2019-06-01T15:42:47.594Z,31.00
2019-06-01T15:45:17.610Z,30.88
2019-06-01T15:47:44.760Z,30.79
2019-06-01T15:50:12.740Z,30.56
2019-06-01T15:52:45.476Z,30.54
2019-06-01T15:55:13.946Z,30.75
2019-06-01T15:57:41.205Z,30.75
2019-06-01T16:00:12.218Z,30.56
2019-06-01T16:02:39.784Z,30.65
2019-06-01T16:05:17.349Z,30.66
2019-06-01T16:07:44.731Z,30.45
2019-06-01T16:10:12.688Z,30.49
2019-06-01T16:12:40.075Z,30.49
2019-06-01T16:15:08.666Z,30.51
2019-06-01T16:17:36.509Z,30.24
2019-06-01T16:20:06.166Z,30.51
2019-06-01T16:22:33.725Z,30.31
2019-06-01T16:25:02.576Z,30.17
2019-06-01T16:27:30.079Z,30.42
2019-06-01T16:29:57.248Z,30.20
2019-06-01T16:32:33.782Z,30.32
2019-06-01T16:35:03.093Z,30.35
2019-06-01T16:37:30.401Z,30.15
2019-06-01T16:40:02.776Z,30.15
2019-06-01T16:42:27.344Z,30.10
2019-06-01T16:44:55.348Z,29.92
2019-06-01T16:47:22.863Z,29.86
2019-06-01T16:49:50.546Z,30.05
2019-06-01T16:52:18.193Z,30.02
2019-06-01T16:54:46.934Z,30.00
2019-06-01T16:57:14.199Z,29.94
2019-06-01T16:59:42.808Z,29.79
2019-06-01T17:02:10.669Z,29.78
2019-06-01T17:04:38.148Z,29.72
2019-06-01T17:07:07.373Z,29.74
2019-06-01T17:09:34.622Z,29.76
2019-06-01T17:12:03.137Z,29.71
2019-06-01T17:14:31.874Z,29.68
2019-06-01T17:17:03.373Z,29.71
2019-06-01T17:19:31.003Z,29.68
2019-06-01T17:21:59.409Z,29.70
2019-06-01T17:24:27.110Z,29.50
2019-06-01T17:26:57.798Z,29.55
2019-06-01T17:29:25.560Z,29.59
2019-06-01T17:32:12.641Z,29.49
2019-06-01T17:34:25.077Z,29.49
2019-06-01T17:36:52.639Z,29.37
2019-06-01T17:39:20.734Z,29.45
2019-06-01T17:41:48.090Z,29.42
2019-06-01T17:44:15.766Z,29.35
2019-06-01T17:46:53.050Z,29.30
2019-06-01T17:49:12.517Z,29.21
2019-06-01T17:51:40.483Z,29.13
2019-06-01T17:54:18.032Z,29.04
2019-06-01T17:56:45.299Z,28.91
2019-06-01T17:59:13.136Z,28.87
2019-06-01T18:01:42.541Z,28.82
2019-06-01T18:04:10.123Z,28.73
2019-06-01T18:06:37.903Z,28.72
2019-06-01T18:09:08.111Z,28.72
2019-06-01T18:11:35.767Z,28.59
2019-06-01T18:14:06.249Z,28.46
2019-06-01T18:16:33.918Z,28.42
2019-06-01T18:19:02.145Z,28.22
2019-06-01T18:21:33.414Z,28.31
2019-06-01T18:24:04.296Z,28.24
2019-06-01T18:26:37.405Z,28.01
2019-06-01T18:29:06.578Z,28.06
2019-06-01T18:31:35.152Z,27.95
2019-06-01T18:34:03.229Z,27.94
2019-06-01T18:36:30.897Z,27.90
2019-06-01T18:38:58.272Z,27.83
2019-06-01T18:41:26.837Z,27.62
2019-06-01T18:43:54.938Z,27.47
2019-06-01T18:46:22.781Z,27.45
2019-06-01T18:48:50.877Z,27.37
2019-06-01T18:51:18.520Z,27.28
2019-06-01T18:53:45.977Z,27.17
2019-06-01T18:56:14.345Z,27.10
2019-06-01T18:58:41.995Z,27.11
2019-06-01T19:01:10.687Z,27.06
2019-06-01T19:03:39.229Z,26.92
2019-06-01T19:06:07.295Z,26.80
2019-06-01T19:08:34.627Z,26.68
2019-06-01T19:11:02.405Z,26.53
2019-06-01T19:13:30.751Z,26.40
2019-06-01T19:15:58.428Z,26.32
2019-06-01T19:18:25.614Z,26.24
2019-06-01T19:20:52.978Z,26.16
2019-06-01T19:23:22.654Z,26.06
2019-06-01T19:25:49.334Z,25.83
2019-06-01T19:28:17.482Z,25.59
2019-06-01T19:30:46.053Z,25.57
2019-06-01T19:33:16.845Z,25.43
2019-06-01T19:35:42.952Z,25.24
2019-06-01T19:38:11.446Z,25.19
2019-06-01T19:40:49.015Z,25.14
2019-06-01T19:43:17.741Z,24.79
2019-06-01T19:45:45.257Z,24.68
2019-06-01T19:48:12.555Z,24.49
2019-06-01T19:50:40.145Z,24.39
2019-06-01T19:53:08.710Z,24.44
2019-06-01T19:55:36.220Z,24.43
2019-06-01T19:58:03.808Z,24.37
2019-06-01T20:00:31.599Z,24.40
2019-06-01T20:02:59.139Z,24.26
2019-06-01T20:05:28.391Z,24.20
2019-06-01T20:07:55.909Z,24.04
2019-06-01T20:10:23.134Z,23.99
2019-06-01T20:12:50.701Z,24.08
2019-06-01T20:15:24.733Z,23.87
2019-06-01T20:17:52.123Z,23.69
2019-06-01T20:20:20.861Z,23.51
2019-06-01T20:22:48.403Z,23.54
2019-06-01T20:25:17.536Z,23.57
2019-06-01T20:27:45.372Z,23.45
2019-06-01T20:30:13.819Z,23.50
2019-06-01T20:32:41.302Z,23.47
2019-06-01T20:35:10.167Z,23.34
2019-06-01T20:37:37.379Z,23.25
2019-06-01T20:40:05.295Z,23.02
2019-06-01T20:42:33.106Z,22.93
2019-06-01T20:45:00.429Z,22.92
2019-06-01T20:47:27.596Z,22.85
2019-06-01T20:50:03.107Z,22.55
2019-06-01T20:52:30.283Z,22.44
2019-06-01T20:54:57.434Z,22.27
2019-06-01T20:57:24.691Z,22.26
2019-06-01T20:59:52.047Z,22.24
2019-06-01T21:02:19.860Z,22.17
2019-06-01T21:04:47.239Z,22.11
2019-06-01T21:07:15.645Z,21.84
2019-06-01T21:09:43.084Z,21.84
2019-06-01T21:12:38.377Z,21.71
2019-06-01T21:14:50.558Z,21.53
2019-06-01T21:17:18.477Z,21.49
2019-06-01T21:19:45.880Z,21.52
2019-06-01T21:22:14.469Z,21.28
2019-06-01T21:24:41.859Z,21.16
2019-06-01T21:27:09.113Z,21.22
2019-06-01T21:29:36.291Z,21.22
2019-06-01T21:32:03.788Z,21.08
2019-06-01T21:34:31.200Z,20.92
2019-06-01T21:36:58.549Z,20.85
2019-06-01T21:39:25.708Z,20.74
2019-06-01T21:41:52.984Z,20.99
2019-06-01T21:44:21.506Z,20.96
2019-06-01T21:46:48.961Z,20.98
2019-06-01T21:49:17.566Z,20.86
2019-06-01T21:51:45.147Z,20.87
2019-06-01T21:54:12.406Z,20.81
2019-06-01T21:56:41.821Z,20.75
2019-06-01T21:59:09.042Z,20.67
2019-06-01T22:01:36.681Z,20.72
2019-06-01T22:04:15.190Z,20.65
2019-06-01T22:06:49.740Z,20.61
2019-06-01T22:09:19.097Z,20.60
2019-06-01T22:11:48.718Z,20.41
2019-06-01T22:14:26.050Z,20.25
2019-06-01T22:16:55.041Z,20.22
2019-06-01T22:19:23.752Z,20.06
2019-06-01T22:21:55.569Z,20.07
2019-06-01T22:24:39.361Z,20.05
2019-06-01T22:27:09.143Z,19.99
2019-06-01T22:29:36.545Z,19.87
2019-06-01T22:32:03.926Z,19.72
2019-06-01T22:34:47.149Z,19.70
2019-06-01T22:37:14.487Z,19.62
2019-06-01T22:39:42.152Z,19.72
2019-06-01T22:42:09.471Z,19.78
2019-06-01T22:44:36.820Z,19.71
2019-06-01T22:47:04.341Z,19.68
2019-06-01T22:49:32.947Z,19.54
2019-06-01T22:52:00.627Z,19.41
2019-06-01T22:54:31.351Z,19.47
2019-06-01T22:56:59.230Z,19.28
2019-06-01T22:59:35.013Z,19.37
2019-06-01T23:02:02.300Z,19.24
2019-06-01T23:04:29.665Z,19.17
2019-06-01T23:06:58.420Z,19.14
2019-06-01T23:09:25.666Z,19.01
2019-06-01T23:11:53.822Z,18.92
2019-06-01T23:14:23.462Z,18.91
2019-06-01T23:16:50.935Z,18.83
2019-06-01T23:19:18.236Z,18.90
2019-06-01T23:21:53.566Z,18.80
2019-06-01T23:24:21.826Z,18.70
2019-06-01T23:26:49.228Z,18.68
2019-06-01T23:29:18.972Z,18.71
2019-06-01T23:31:59.694Z,18.76
2019-06-01T23:34:28.712Z,18.73
2019-06-01T23:36:56.681Z,18.76
2019-06-01T23:39:24.565Z,18.70
2019-06-01T23:41:52.032Z,18.70
2019-06-01T23:44:22.615Z,18.55
2019-06-01T23:46:49.834Z,18.45
2019-06-01T23:49:17.095Z,18.38
2019-06-01T23:51:44.271Z,18.31
2019-06-01T23:54:21.486Z,18.26
2019-06-01T23:56:48.858Z,18.35
2019-06-01T23:59:16.347Z,18.30
